Anzeige # 
Titel Autor Zugriffe
CORONA Geschrieben von Super User 459
Weihnachten 2019 Geschrieben von Super User 486
PPL (A) Pilot Geschrieben von Super User 835
Unser neues Flugzeug Geschrieben von Super User 1820
Weihnachten Geschrieben von Super User 1612
PPL (A) Pilot Geschrieben von Super User 2086

Unterkategorien

Flugwetter Augsburg

[source: ADDS]
METAR
EDMA 222220Z AUTO 17005KT 9999 // FEW100/// BKN140/// 16/14 Q1010 =
TAF EDMA 221700Z 2218/2303 VRB03KT 9999 SCT040 PROB30 TEMPO 2223/2303 23015G25KT TSRA BKN035CB
TAF
TAF EDMA 221700Z 2218/2303 VRB03KT 9999 SCT040 PROB30 TEMPO 2223/2303 23015G25KT TSRA BKN035CB =
Cookies erleichtern die Bereitstellung unserer Dienste. Mit der Nutzung unserer Dienste erklären Sie sich damit einverstanden, dass wir Cookies verwenden.
Weitere Informationen Ok